createdAt,value
2018-11-07T00:00:08.230Z,11.60
2018-11-07T00:02:37.303Z,11.50
2018-11-07T00:05:06.973Z,11.50
2018-11-07T00:07:36.119Z,11.50
2018-11-07T00:10:09.972Z,11.50
2018-11-07T00:12:39.388Z,11.50
2018-11-07T00:15:10.784Z,11.40
2018-11-07T00:17:39.952Z,11.40
2018-11-07T00:20:10.449Z,11.40
2018-11-07T00:22:39.775Z,11.40
2018-11-07T00:25:10.167Z,11.30
2018-11-07T00:27:39.432Z,11.30
2018-11-07T00:30:09.539Z,11.30
2018-11-07T00:32:38.827Z,11.30
2018-11-07T00:35:08.805Z,11.30
2018-11-07T00:37:37.925Z,11.20
2018-11-07T00:40:07.121Z,11.20
2018-11-07T00:42:36.122Z,11.10
2018-11-07T00:45:06.038Z,11.10
2018-11-07T00:47:35.137Z,11.10
2018-11-07T00:50:05.003Z,11.10
2018-11-07T00:52:34.107Z,11.00
2018-11-07T00:55:03.122Z,11.00
2018-11-07T00:57:32.144Z,10.90
2018-11-07T01:00:01.202Z,10.90
2018-11-07T01:02:30.322Z,10.80
2018-11-07T01:04:59.300Z,10.80
2018-11-07T01:07:28.351Z,10.80
2018-11-07T01:09:57.479Z,10.80
2018-11-07T01:12:26.659Z,10.70
2018-11-07T01:14:55.782Z,10.70
2018-11-07T01:17:24.836Z,10.70
2018-11-07T01:19:54.040Z,10.60
2018-11-07T01:22:23.190Z,10.60
2018-11-07T01:24:52.357Z,10.60
2018-11-07T01:27:25.228Z,10.50
2018-11-07T01:29:54.560Z,10.50
2018-11-07T01:32:23.651Z,10.40
2018-11-07T01:34:52.711Z,10.40
2018-11-07T01:37:21.737Z,10.40
2018-11-07T01:39:50.829Z,10.30
2018-11-07T01:42:19.826Z,10.30
2018-11-07T01:44:49.073Z,10.20
2018-11-07T01:47:18.037Z,10.20
2018-11-07T01:49:48.224Z,10.20
2018-11-07T01:52:17.435Z,10.10
2018-11-07T01:54:46.653Z,10.10
2018-11-07T01:57:16.444Z,10.10
2018-11-07T01:59:45.900Z,10.10
2018-11-07T02:02:15.232Z,10.10
2018-11-07T02:04:44.589Z,10.00
2018-11-07T02:07:13.741Z,10.00
2018-11-07T02:09:42.904Z,10.00
2018-11-07T02:12:12.063Z,10.00
2018-11-07T02:14:41.216Z,9.90
2018-11-07T02:17:10.338Z,9.90
2018-11-07T02:19:39.700Z,9.90
2018-11-07T02:22:08.906Z,9.80
2018-11-07T02:24:37.945Z,9.70
2018-11-07T02:27:07.028Z,9.70
2018-11-07T02:29:36.755Z,9.70
2018-11-07T02:32:05.970Z,9.70
2018-11-07T02:34:35.104Z,9.70
2018-11-07T02:37:04.366Z,9.60
2018-11-07T02:39:33.414Z,9.60
2018-11-07T02:42:02.631Z,9.60
2018-11-07T02:44:31.773Z,9.60
2018-11-07T02:47:01.114Z,9.50
2018-11-07T02:49:30.302Z,9.50
2018-11-07T02:51:59.564Z,9.50
2018-11-07T02:54:28.581Z,9.50
2018-11-07T02:56:57.563Z,9.50
2018-11-07T02:59:26.640Z,9.50
2018-11-07T03:01:55.674Z,9.50
2018-11-07T03:04:24.717Z,9.40
2018-11-07T03:06:53.781Z,9.40
2018-11-07T03:09:22.869Z,9.40
2018-11-07T03:11:51.898Z,9.40
2018-11-07T03:14:20.920Z,9.40
2018-11-07T03:16:49.977Z,9.30
2018-11-07T03:19:18.942Z,9.30
2018-11-07T03:21:47.896Z,9.30
2018-11-07T03:24:16.835Z,9.30
2018-11-07T03:26:45.908Z,9.30
2018-11-07T03:29:14.997Z,9.30
2018-11-07T03:31:44.146Z,9.30
2018-11-07T03:34:13.269Z,9.30
2018-11-07T03:36:42.885Z,9.20
2018-11-07T03:39:12.358Z,9.20
2018-11-07T03:41:41.551Z,9.20
2018-11-07T03:44:11.723Z,9.20
2018-11-07T03:46:40.818Z,9.20
2018-11-07T03:49:09.929Z,9.20
2018-11-07T03:51:39.006Z,9.20
2018-11-07T03:54:08.198Z,9.20
2018-11-07T03:56:40.941Z,9.10
2018-11-07T03:59:09.989Z,9.10
2018-11-07T04:01:39.079Z,9.10
2018-11-07T04:04:09.204Z,9.10
2018-11-07T04:06:38.259Z,9.10
2018-11-07T04:09:10.331Z,9.00
2018-11-07T04:11:40.566Z,9.00
2018-11-07T04:14:10.023Z,9.00
2018-11-07T04:16:39.524Z,9.00
2018-11-07T04:19:09.671Z,9.00
2018-11-07T04:21:40.101Z,9.00
2018-11-07T04:24:09.300Z,9.00
2018-11-07T04:26:39.634Z,9.00
2018-11-07T04:29:09.239Z,9.00
2018-11-07T04:31:38.723Z,9.00
2018-11-07T04:34:08.650Z,9.00
2018-11-07T04:36:37.864Z,8.90
2018-11-07T04:39:09.985Z,9.00
2018-11-07T04:41:40.064Z,8.90
2018-11-07T04:44:10.652Z,8.90
2018-11-07T04:46:40.050Z,8.90
2018-11-07T04:49:09.412Z,8.90
2018-11-07T04:51:39.039Z,8.90
2018-11-07T04:54:09.234Z,8.90
2018-11-07T04:56:38.410Z,8.90
2018-11-07T04:59:07.771Z,8.80
2018-11-07T05:01:36.977Z,8.80
2018-11-07T05:04:06.480Z,8.80
2018-11-07T05:06:36.837Z,8.80
2018-11-07T05:09:13.490Z,8.80
2018-11-07T05:11:43.611Z,8.80
2018-11-07T05:14:12.851Z,8.80
2018-11-07T05:16:42.088Z,8.80
2018-11-07T05:19:11.293Z,8.80
2018-11-07T05:21:41.562Z,8.80
2018-11-07T05:24:16.259Z,8.80
2018-11-07T05:26:45.472Z,8.80
2018-11-07T05:29:15.076Z,8.80
2018-11-07T05:31:44.463Z,8.70
2018-11-07T05:34:14.614Z,8.70
2018-11-07T05:36:43.858Z,8.70
2018-11-07T05:41:41.296Z,8.70
2018-11-07T05:44:16.775Z,8.70
2018-11-07T05:46:45.765Z,8.60
2018-11-07T05:49:14.857Z,8.70
2018-11-07T05:51:44.037Z,8.60
2018-11-07T05:54:13.156Z,8.70
2018-11-07T05:56:42.250Z,8.70
2018-11-07T05:59:12.229Z,8.70
2018-11-07T06:01:41.372Z,8.70
2018-11-07T06:04:10.478Z,8.70
2018-11-07T06:06:39.436Z,8.70
2018-11-07T06:09:08.660Z,8.70
2018-11-07T06:11:37.984Z,8.70
2018-11-07T06:14:07.374Z,8.70
2018-11-07T06:16:36.449Z,8.70
2018-11-07T06:19:05.369Z,8.70
2018-11-07T06:21:34.584Z,8.70
2018-11-07T06:24:03.569Z,8.70
2018-11-07T06:26:32.441Z,8.70
2018-11-07T06:29:01.824Z,8.70
2018-11-07T06:31:30.799Z,8.80
2018-11-07T06:33:59.974Z,8.80
2018-11-07T06:36:29.527Z,8.70
2018-11-07T06:38:58.401Z,8.80
2018-11-07T06:41:28.944Z,8.80
2018-11-07T06:43:58.324Z,8.80
2018-11-07T06:46:27.244Z,8.80
2018-11-07T06:48:56.141Z,8.90
2018-11-07T06:51:25.032Z,8.90
2018-11-07T06:53:54.881Z,8.90
2018-11-07T06:56:23.757Z,9.00
2018-11-07T06:58:52.643Z,9.00
2018-11-07T07:01:21.553Z,9.00
2018-11-07T07:03:50.389Z,9.00
2018-11-07T07:06:19.194Z,9.10
2018-11-07T07:08:48.073Z,9.10
2018-11-07T07:11:16.961Z,9.10
2018-11-07T07:13:45.762Z,9.20
2018-11-07T07:16:14.661Z,9.20
2018-11-07T07:18:43.588Z,9.20
2018-11-07T07:21:12.460Z,9.30
2018-11-07T07:23:41.370Z,9.30
2018-11-07T07:26:10.343Z,9.40
2018-11-07T07:28:39.512Z,9.40
2018-11-07T07:31:08.426Z,9.50
2018-11-07T07:33:37.382Z,9.50
2018-11-07T07:36:06.698Z,9.60
2018-11-07T07:38:35.658Z,9.60
2018-11-07T07:41:05.141Z,9.70
2018-11-07T07:43:34.024Z,9.70
2018-11-07T07:46:02.967Z,9.70
2018-11-07T07:48:31.925Z,9.70
2018-11-07T07:51:01.418Z,9.80
2018-11-07T07:53:30.479Z,9.80
2018-11-07T07:55:59.529Z,9.80
2018-11-07T07:58:28.511Z,9.90
2018-11-07T08:00:58.165Z,9.90
2018-11-07T08:03:27.084Z,9.90
2018-11-07T08:05:55.888Z,10.00
2018-11-07T08:08:25.054Z,10.00
2018-11-07T08:10:56.921Z,10.10
2018-11-07T08:13:26.218Z,10.10
2018-11-07T08:15:55.132Z,10.20
2018-11-07T08:18:25.318Z,10.20
2018-11-07T08:20:54.457Z,10.30
2018-11-07T08:23:24.570Z,10.30
2018-11-07T08:25:53.637Z,10.30
2018-11-07T08:28:24.369Z,10.40
2018-11-07T08:30:56.995Z,10.40
2018-11-07T08:33:25.981Z,10.50
2018-11-07T08:36:01.624Z,10.50
2018-11-07T08:38:30.548Z,10.60
2018-11-07T08:40:59.434Z,10.60
2018-11-07T08:43:28.490Z,10.70
2018-11-07T08:45:57.497Z,10.80
2018-11-07T08:48:26.656Z,10.80
2018-11-07T08:50:55.538Z,10.90
2018-11-07T08:53:24.476Z,10.90
2018-11-07T08:55:53.356Z,10.90
2018-11-07T08:58:22.291Z,11.00
2018-11-07T09:00:52.548Z,11.00
2018-11-07T09:03:22.100Z,11.10
2018-11-07T09:05:51.467Z,11.10
2018-11-07T09:08:20.720Z,11.10
2018-11-07T09:10:50.089Z,11.20
2018-11-07T09:13:19.821Z,11.30
2018-11-07T09:15:49.259Z,11.30
2018-11-07T09:18:18.909Z,11.30
2018-11-07T09:20:48.156Z,11.40
2018-11-07T09:23:17.271Z,11.40
2018-11-07T09:25:46.512Z,11.50
2018-11-07T09:28:16.058Z,11.60
2018-11-07T09:30:46.398Z,11.60
2018-11-07T09:33:15.542Z,11.70
2018-11-07T09:35:44.621Z,11.70
2018-11-07T09:38:14.253Z,11.80
2018-11-07T09:40:43.988Z,11.80
2018-11-07T09:43:13.566Z,11.90
2018-11-07T09:45:42.870Z,11.90
2018-11-07T09:48:12.504Z,12.00
2018-11-07T09:50:42.446Z,12.00
2018-11-07T09:53:11.700Z,12.10
2018-11-07T09:55:45.642Z,12.10
2018-11-07T09:58:16.019Z,12.20
2018-11-07T10:00:45.510Z,12.20
2018-11-07T10:03:15.083Z,12.30
2018-11-07T10:05:44.929Z,12.30
2018-11-07T10:08:14.423Z,12.30
2018-11-07T10:10:43.410Z,12.40
2018-11-07T10:13:12.448Z,12.40
2018-11-07T10:15:41.613Z,12.50
2018-11-07T10:18:11.380Z,12.50
2018-11-07T10:20:40.509Z,12.60
2018-11-07T10:23:10.315Z,12.60
2018-11-07T10:25:39.919Z,12.70
2018-11-07T10:28:09.984Z,12.70
2018-11-07T10:30:38.575Z,12.70
2018-11-07T10:33:07.892Z,12.80
2018-11-07T10:35:37.383Z,12.80
2018-11-07T10:38:07.281Z,12.90
2018-11-07T10:40:36.268Z,12.90
2018-11-07T10:43:05.306Z,13.00
2018-11-07T10:45:34.571Z,13.00
2018-11-07T10:48:03.811Z,13.00
2018-11-07T10:50:33.668Z,13.10
2018-11-07T10:53:02.622Z,13.10
2018-11-07T10:55:31.585Z,13.10
2018-11-07T10:58:00.690Z,13.20
2018-11-07T11:00:34.775Z,13.20
2018-11-07T11:03:09.726Z,13.30
2018-11-07T11:05:40.259Z,13.30
2018-11-07T11:08:09.725Z,13.40
2018-11-07T11:10:39.022Z,13.40
2018-11-07T11:13:08.233Z,13.40
2018-11-07T11:15:37.459Z,13.50
2018-11-07T11:18:06.638Z,13.50
2018-11-07T11:20:35.860Z,13.60
2018-11-07T11:23:05.331Z,13.70
2018-11-07T11:25:40.369Z,13.70
2018-11-07T11:28:10.028Z,13.80
2018-11-07T11:30:39.032Z,13.90
2018-11-07T11:33:08.064Z,13.90
2018-11-07T11:35:37.668Z,14.00
2018-11-07T11:38:07.926Z,14.00
2018-11-07T11:40:38.432Z,14.00
2018-11-07T11:43:07.415Z,14.10
2018-11-07T11:45:36.845Z,14.10
2018-11-07T11:48:07.259Z,14.20
2018-11-07T11:50:36.250Z,14.20
2018-11-07T11:53:05.221Z,14.20
2018-11-07T11:55:34.450Z,14.30
2018-11-07T11:58:03.937Z,14.30
2018-11-07T12:00:32.853Z,14.30
2018-11-07T12:03:01.930Z,14.40
2018-11-07T12:05:30.805Z,14.40
2018-11-07T12:07:59.911Z,14.50
2018-11-07T12:10:29.132Z,14.50
2018-11-07T12:13:06.075Z,14.50
2018-11-07T12:15:35.160Z,14.60
2018-11-07T12:18:04.349Z,14.70
2018-11-07T12:20:33.391Z,14.70
2018-11-07T12:23:02.606Z,14.80
2018-11-07T12:25:31.797Z,14.80
2018-11-07T12:28:01.402Z,14.90
2018-11-07T12:30:30.555Z,15.00
2018-11-07T12:32:59.727Z,15.00
2018-11-07T12:35:29.261Z,15.10
2018-11-07T12:38:02.637Z,15.10
2018-11-07T12:43:00.321Z,15.10
2018-11-07T12:45:29.415Z,15.00
2018-11-07T12:47:58.376Z,14.90
2018-11-07T12:50:27.395Z,14.80
2018-11-07T12:52:56.585Z,14.70
2018-11-07T12:55:25.562Z,14.70
2018-11-07T12:57:54.710Z,14.70
2018-11-07T13:00:24.872Z,14.60
2018-11-07T13:02:58.201Z,14.60
2018-11-07T13:05:27.465Z,14.60
2018-11-07T13:07:57.376Z,14.50
2018-11-07T13:10:26.325Z,14.50
2018-11-07T13:12:55.428Z,14.50
2018-11-07T13:15:24.368Z,14.50
2018-11-07T13:17:53.585Z,14.50
2018-11-07T13:20:24.765Z,14.50
2018-11-07T13:22:54.339Z,14.40
2018-11-07T13:25:24.820Z,14.40
2018-11-07T13:27:53.745Z,14.40
2018-11-07T13:30:23.371Z,14.40
2018-11-07T13:32:53.121Z,14.40
2018-11-07T13:35:22.286Z,14.40
2018-11-07T13:37:53.022Z,14.40
2018-11-07T13:40:23.113Z,14.30
2018-11-07T13:42:53.096Z,14.30
2018-11-07T13:45:26.714Z,14.30
2018-11-07T13:47:55.831Z,14.30
2018-11-07T13:50:24.941Z,14.30
2018-11-07T13:52:54.549Z,14.30
2018-11-07T13:55:23.705Z,14.20
2018-11-07T13:57:52.739Z,14.20
2018-11-07T14:00:23.896Z,14.20
2018-11-07T14:02:53.814Z,14.20
2018-11-07T14:05:23.283Z,14.20
2018-11-07T14:07:53.489Z,14.20
2018-11-07T14:10:23.973Z,14.10
2018-11-07T14:12:54.560Z,14.10
2018-11-07T14:15:23.857Z,14.10
2018-11-07T14:17:53.249Z,14.10
2018-11-07T14:20:22.610Z,14.10
2018-11-07T14:22:52.952Z,14.00
2018-11-07T14:25:22.194Z,14.00
2018-11-07T14:27:51.501Z,14.00
2018-11-07T14:30:21.198Z,13.90
2018-11-07T14:32:54.135Z,13.90
2018-11-07T14:35:23.534Z,13.90
2018-11-07T14:37:53.397Z,13.80
2018-11-07T14:40:22.289Z,13.80
2018-11-07T14:42:51.405Z,13.80
2018-11-07T14:45:26.854Z,13.70
2018-11-07T14:47:55.931Z,13.70
2018-11-07T14:50:24.960Z,13.60
2018-11-07T14:52:53.881Z,13.60
2018-11-07T14:55:22.931Z,13.50
2018-11-07T14:57:51.803Z,13.50
2018-11-07T15:00:20.749Z,13.50
2018-11-07T15:02:50.539Z,13.40
2018-11-07T15:05:19.911Z,13.40
2018-11-07T15:07:48.911Z,13.30
2018-11-07T15:10:18.306Z,13.30
2018-11-07T15:12:47.547Z,13.20
2018-11-07T15:15:17.947Z,13.20
2018-11-07T15:17:46.983Z,13.10
2018-11-07T15:20:16.868Z,13.10
2018-11-07T15:22:45.858Z,13.10
2018-11-07T15:25:15.998Z,13.00
2018-11-07T15:27:45.808Z,13.00
2018-11-07T15:30:15.680Z,12.90
2018-11-07T15:32:45.304Z,12.90
2018-11-07T15:35:14.714Z,12.90
2018-11-07T15:37:43.749Z,12.80
2018-11-07T15:40:17.347Z,12.80
2018-11-07T15:42:47.170Z,12.80
2018-11-07T15:45:32.267Z,12.70
2018-11-07T15:48:01.153Z,12.70
2018-11-07T15:50:35.326Z,12.70
2018-11-07T15:53:04.287Z,12.70
2018-11-07T15:55:33.943Z,12.60
2018-11-07T15:58:02.909Z,12.60
2018-11-07T16:00:31.889Z,12.60
2018-11-07T16:03:00.863Z,12.60
2018-11-07T16:05:29.865Z,12.50
2018-11-07T16:07:59.393Z,12.50
2018-11-07T16:10:29.465Z,12.50
2018-11-07T16:13:00.533Z,12.50
2018-11-07T16:15:29.936Z,12.50
2018-11-07T16:18:02.514Z,12.50
2018-11-07T16:20:31.754Z,12.40
2018-11-07T16:23:00.964Z,12.40
2018-11-07T16:25:37.036Z,12.40
2018-11-07T16:28:06.143Z,12.40
2018-11-07T16:30:35.652Z,12.40
2018-11-07T16:33:06.010Z,12.40
2018-11-07T16:35:35.555Z,12.40
2018-11-07T16:38:06.308Z,12.40
2018-11-07T16:40:35.757Z,12.30
2018-11-07T16:43:04.819Z,12.30
2018-11-07T16:45:33.966Z,12.30
2018-11-07T16:48:04.190Z,12.30
2018-11-07T16:50:34.329Z,12.30
2018-11-07T16:53:03.496Z,12.30
2018-11-07T16:55:33.057Z,12.30
2018-11-07T16:58:03.573Z,12.30
2018-11-07T17:00:35.138Z,12.30
2018-11-07T17:03:05.872Z,12.30
2018-11-07T17:05:36.810Z,12.30
2018-11-07T17:08:07.996Z,12.20
2018-11-07T17:10:37.499Z,12.20
2018-11-07T17:13:06.555Z,12.20
2018-11-07T17:15:36.685Z,12.20
2018-11-07T17:18:05.655Z,12.20
2018-11-07T17:20:34.799Z,12.20
2018-11-07T17:23:04.190Z,12.20
2018-11-07T17:25:33.278Z,12.20
2018-11-07T17:28:02.616Z,12.20
2018-11-07T17:30:31.859Z,12.20
2018-11-07T17:33:01.029Z,12.10
2018-11-07T17:35:30.429Z,12.10
2018-11-07T17:37:59.532Z,12.10
2018-11-07T17:40:29.158Z,12.10
2018-11-07T17:42:58.439Z,12.10
2018-11-07T17:45:27.577Z,12.10
2018-11-07T17:47:56.666Z,12.10
2018-11-07T17:50:26.420Z,12.10
2018-11-07T17:52:57.641Z,12.10
2018-11-07T17:57:54.877Z,12.00
2018-11-07T18:00:29.762Z,11.90
2018-11-07T18:02:58.723Z,11.90
2018-11-07T18:05:27.768Z,11.90
2018-11-07T18:07:56.686Z,11.90
2018-11-07T18:10:25.600Z,11.90
2018-11-07T18:12:54.703Z,11.90
2018-11-07T18:15:23.987Z,11.90
2018-11-07T18:17:53.100Z,11.90
2018-11-07T18:20:22.022Z,11.90
2018-11-07T18:22:51.178Z,11.90
2018-11-07T18:25:20.221Z,11.90
2018-11-07T18:27:49.320Z,11.90
2018-11-07T18:30:18.484Z,11.90
2018-11-07T18:32:48.175Z,11.80
2018-11-07T18:35:18.628Z,11.80
2018-11-07T18:37:47.990Z,11.80
2018-11-07T18:40:18.391Z,11.80
2018-11-07T18:42:47.305Z,11.80
2018-11-07T18:45:16.752Z,11.80
2018-11-07T18:47:52.413Z,11.80
2018-11-07T18:50:21.787Z,11.80
2018-11-07T18:52:50.866Z,11.80
2018-11-07T18:55:19.953Z,11.80
2018-11-07T18:57:49.159Z,11.80
2018-11-07T19:00:19.545Z,11.80
2018-11-07T19:02:50.269Z,11.80
2018-11-07T19:05:19.880Z,11.80
2018-11-07T19:07:48.938Z,11.70
2018-11-07T19:10:19.257Z,11.70
2018-11-07T19:12:49.457Z,11.70
2018-11-07T19:15:18.959Z,11.70
2018-11-07T19:17:49.064Z,11.70
2018-11-07T19:20:18.778Z,11.70
2018-11-07T19:22:47.785Z,11.70
2018-11-07T19:25:18.222Z,11.70
2018-11-07T19:27:47.471Z,11.60
2018-11-07T19:30:18.950Z,11.60
2018-11-07T19:32:49.088Z,11.60
2018-11-07T19:35:19.808Z,11.50
2018-11-07T19:37:49.354Z,11.50
2018-11-07T19:40:23.138Z,11.40
2018-11-07T19:42:53.224Z,11.30
2018-11-07T19:45:22.884Z,11.30
2018-11-07T19:47:53.255Z,11.30
2018-11-07T19:50:22.860Z,11.20
2018-11-07T19:52:53.304Z,11.20
2018-11-07T19:55:23.786Z,11.20
2018-11-07T19:57:54.747Z,11.20
2018-11-07T20:00:24.026Z,11.10
2018-11-07T20:02:54.135Z,11.10
2018-11-07T20:05:23.329Z,11.10
2018-11-07T20:07:54.143Z,11.10
2018-11-07T20:10:30.520Z,11.10
2018-11-07T20:13:01.519Z,11.10
2018-11-07T20:15:30.788Z,11.10
2018-11-07T20:18:00.185Z,11.00
2018-11-07T20:20:29.298Z,11.00
2018-11-07T20:22:59.446Z,11.00
2018-11-07T20:25:29.655Z,11.00
2018-11-07T20:27:59.964Z,11.00
2018-11-07T20:30:29.912Z,11.00
2018-11-07T20:32:59.116Z,11.00
2018-11-07T20:35:28.402Z,11.00
2018-11-07T20:37:57.782Z,11.00
2018-11-07T20:40:26.875Z,11.00
2018-11-07T20:42:56.065Z,11.00
2018-11-07T20:45:25.294Z,11.00
2018-11-07T20:47:54.388Z,10.90
2018-11-07T20:50:23.538Z,10.90
2018-11-07T20:52:53.168Z,10.90
2018-11-07T20:55:22.311Z,10.90
2018-11-07T20:57:51.883Z,10.90
2018-11-07T21:00:22.294Z,10.80
2018-11-07T21:02:51.475Z,10.80
2018-11-07T21:05:20.512Z,10.80
2018-11-07T21:07:49.550Z,10.70
2018-11-07T21:10:21.468Z,10.70
2018-11-07T21:12:55.135Z,10.70
2018-11-07T21:15:24.164Z,10.60
2018-11-07T21:17:53.583Z,10.60
2018-11-07T21:20:22.630Z,10.60
2018-11-07T21:22:51.963Z,10.50
2018-11-07T21:25:21.352Z,10.50
2018-11-07T21:27:51.245Z,10.50
2018-11-07T21:30:21.668Z,10.40
2018-11-07T21:32:50.853Z,10.40
2018-11-07T21:35:20.026Z,10.40
2018-11-07T21:37:49.073Z,10.40
2018-11-07T21:40:18.450Z,10.30
2018-11-07T21:42:48.128Z,10.30
2018-11-07T21:45:17.291Z,10.30
2018-11-07T21:47:46.393Z,10.30
2018-11-07T21:50:16.839Z,10.20
2018-11-07T21:52:45.902Z,10.30
2018-11-07T21:55:14.893Z,10.20
2018-11-07T21:57:43.941Z,10.20
2018-11-07T22:00:15.357Z,10.10
2018-11-07T22:02:44.550Z,10.10
2018-11-07T22:05:14.334Z,10.10
2018-11-07T22:07:44.459Z,10.10
2018-11-07T22:10:15.282Z,10.10
2018-11-07T22:12:44.379Z,10.10
2018-11-07T22:15:13.485Z,10.10
2018-11-07T22:17:42.596Z,10.00
2018-11-07T22:20:14.422Z,10.10
2018-11-07T22:22:44.020Z,10.10
2018-11-07T22:25:13.080Z,10.10
2018-11-07T22:27:42.207Z,10.10
2018-11-07T22:30:12.918Z,10.10
2018-11-07T22:32:41.961Z,10.10
2018-11-07T22:35:12.500Z,10.10
2018-11-07T22:37:41.997Z,10.00
2018-11-07T22:40:12.830Z,10.00
2018-11-07T22:42:42.538Z,10.00
2018-11-07T22:45:12.250Z,10.00
2018-11-07T22:47:41.336Z,10.00
2018-11-07T22:50:12.144Z,10.00
2018-11-07T22:52:43.036Z,10.00
2018-11-07T22:55:12.079Z,10.00
2018-11-07T22:57:41.044Z,10.00
2018-11-07T23:01:15.797Z,10.00
2018-11-07T23:03:45.805Z,9.90
2018-11-07T23:06:14.832Z,9.90
2018-11-07T23:08:43.802Z,9.90
2018-11-07T23:11:13.028Z,9.90
2018-11-07T23:13:42.337Z,9.90
2018-11-07T23:16:11.434Z,9.90
2018-11-07T23:18:40.516Z,9.90
2018-11-07T23:21:09.493Z,9.90
2018-11-07T23:23:38.547Z,9.90
2018-11-07T23:26:07.698Z,9.80
2018-11-07T23:28:36.602Z,9.80
2018-11-07T23:31:05.760Z,9.80
2018-11-07T23:33:34.734Z,9.70
2018-11-07T23:36:03.791Z,9.70
2018-11-07T23:38:33.665Z,9.70
2018-11-07T23:41:02.688Z,9.70
2018-11-07T23:43:31.739Z,9.70
2018-11-07T23:46:00.784Z,9.60
2018-11-07T23:48:29.771Z,9.60
2018-11-07T23:50:58.757Z,9.60
2018-11-07T23:53:27.738Z,9.50
2018-11-07T23:55:56.724Z,9.50
2018-11-07T23:58:25.735Z,9.40
